Niter, Idaho
Current Conditions -  °F | °C
As of 7:15 AM on Friday 24 Oct 2014 (Local Time) from KAFO Reporting Station
Clear Clear  
Wind Chill: -2°   Ceiling: Unl
Heat Index:   Visibility: 10mi
Dew Point: -2°   Wind: 6mph
Humidity: 81%   Direction: 170°S
Pressure: 30.21"   Gusts: NA
Location:  42.5232°N, 111.761°W
Report Text: KAFO 241315Z AUTO 17005KT 10SM CLR 01/M02 A3021 RMK AO2
Loading
Personal Weather Stations






























Interactive Weather Map
Tropical Storm Tracking
New forecast layout! Learn more

10-Day Weather Forecast

Advertisements
Track Severe Weather on mobile